sensor_id;sensor_type;location;lat;lon;timestamp;P1;durP1;ratioP1;P2;durP2;ratioP2
21814;SDS011;11069;48.988;8.450;2022-11-09T00:01:25;5.72;;;3.90;;
21814;SDS011;11069;48.988;8.450;2022-11-09T00:03:53;7.55;;;4.13;;
21814;SDS011;11069;48.988;8.450;2022-11-09T00:06:20;6.68;;;4.43;;
21814;SDS011;11069;48.988;8.450;2022-11-09T00:08:46;10.07;;;4.88;;
21814;SDS011;11069;48.988;8.450;2022-11-09T00:11:12;6.60;;;4.18;;
21814;SDS011;11069;48.988;8.450;2022-11-09T00:13:38;7.28;;;4.20;;
21814;SDS011;11069;48.988;8.450;2022-11-09T00:16:09;8.25;;;5.15;;
21814;SDS011;11069;48.988;8.450;2022-11-09T00:18:36;8.60;;;5.03;;
21814;SDS011;11069;48.988;8.450;2022-11-09T00:21:06;7.85;;;5.50;;
21814;SDS011;11069;48.988;8.450;2022-11-09T00:23:33;9.60;;;5.63;;
21814;SDS011;11069;48.988;8.450;2022-11-09T00:26:06;8.68;;;5.63;;
21814;SDS011;11069;48.988;8.450;2022-11-09T00:28:33;10.70;;;5.93;;
21814;SDS011;11069;48.988;8.450;2022-11-09T00:31:03;8.52;;;6.18;;
21814;SDS011;11069;48.988;8.450;2022-11-09T00:33:36;11.20;;;7.43;;
21814;SDS011;11069;48.988;8.450;2022-11-09T00:36:06;8.57;;;7.25;;
21814;SDS011;11069;48.988;8.450;2022-11-09T00:38:34;14.98;;;7.82;;
21814;SDS011;11069;48.988;8.450;2022-11-09T00:41:01;7.80;;;6.63;;
21814;SDS011;11069;48.988;8.450;2022-11-09T00:43:28;9.02;;;7.28;;
21814;SDS011;11069;48.988;8.450;2022-11-09T00:45:54;14.35;;;9.75;;
21814;SDS011;11069;48.988;8.450;2022-11-09T00:48:19;13.38;;;10.10;;
21814;SDS011;11069;48.988;8.450;2022-11-09T00:50:49;13.10;;;10.25;;
21814;SDS011;11069;48.988;8.450;2022-11-09T00:53:15;14.75;;;9.60;;
21814;SDS011;11069;48.988;8.450;2022-11-09T00:55:41;14.15;;;9.80;;
21814;SDS011;11069;48.988;8.450;2022-11-09T00:58:06;14.40;;;9.73;;
21814;SDS011;11069;48.988;8.450;2022-11-09T01:00:32;16.13;;;10.13;;
21814;SDS011;11069;48.988;8.450;2022-11-09T01:02:57;15.45;;;10.05;;
21814;SDS011;11069;48.988;8.450;2022-11-09T01:05:23;11.40;;;9.30;;
21814;SDS011;11069;48.988;8.450;2022-11-09T01:07:49;13.93;;;10.32;;
21814;SDS011;11069;48.988;8.450;2022-11-09T01:10:14;14.27;;;10.30;;
21814;SDS011;11069;48.988;8.450;2022-11-09T01:12:40;13.10;;;9.75;;
21814;SDS011;11069;48.988;8.450;2022-11-09T01:15:05;15.65;;;9.30;;
21814;SDS011;11069;48.988;8.450;2022-11-09T01:17:31;11.90;;;9.20;;
21814;SDS011;11069;48.988;8.450;2022-11-09T01:19:57;12.45;;;9.85;;
21814;SDS011;11069;48.988;8.450;2022-11-09T01:22:22;15.90;;;10.43;;
21814;SDS011;11069;48.988;8.450;2022-11-09T01:24:48;10.93;;;8.65;;
21814;SDS011;11069;48.988;8.450;2022-11-09T01:27:13;9.65;;;8.65;;
21814;SDS011;11069;48.988;8.450;2022-11-09T01:29:39;11.23;;;9.40;;
21814;SDS011;11069;48.988;8.450;2022-11-09T01:32:04;12.93;;;9.13;;
21814;SDS011;11069;48.988;8.450;2022-11-09T01:34:30;12.32;;;8.93;;
21814;SDS011;11069;48.988;8.450;2022-11-09T01:36:56;18.38;;;9.80;;
21814;SDS011;11069;48.988;8.450;2022-11-09T01:39:23;18.05;;;11.52;;
21814;SDS011;11069;48.988;8.450;2022-11-09T01:41:48;11.60;;;10.15;;
21814;SDS011;11069;48.988;8.450;2022-11-09T01:44:17;10.95;;;9.20;;
21814;SDS011;11069;48.988;8.450;2022-11-09T01:46:51;11.75;;;8.85;;
21814;SDS011;11069;48.988;8.450;2022-11-09T01:52:15;16.35;;;10.27;;
21814;SDS011;11069;48.988;8.450;2022-11-09T01:54:49;15.07;;;10.75;;
21814;SDS011;11069;48.988;8.450;2022-11-09T01:57:20;12.15;;;9.68;;
21814;SDS011;11069;48.988;8.450;2022-11-09T02:00:23;14.90;;;10.80;;
21814;SDS011;11069;48.988;8.450;2022-11-09T02:02:50;14.88;;;12.00;;
21814;SDS011;11069;48.988;8.450;2022-11-09T02:05:22;16.13;;;11.55;;
21814;SDS011;11069;48.988;8.450;2022-11-09T02:07:50;12.60;;;11.02;;
21814;SDS011;11069;48.988;8.450;2022-11-09T02:10:21;17.40;;;12.65;;
21814;SDS011;11069;48.988;8.450;2022-11-09T02:12:55;15.02;;;12.60;;
21814;SDS011;11069;48.988;8.450;2022-11-09T02:15:21;16.52;;;12.85;;
21814;SDS011;11069;48.988;8.450;2022-11-09T02:17:49;15.13;;;12.27;;
21814;SDS011;11069;48.988;8.450;2022-11-09T02:20:17;14.38;;;11.88;;
21814;SDS011;11069;48.988;8.450;2022-11-09T02:22:43;21.30;;;14.70;;
21814;SDS011;11069;48.988;8.450;2022-11-09T02:25:10;13.95;;;11.27;;
21814;SDS011;11069;48.988;8.450;2022-11-09T02:27:38;13.88;;;11.93;;
21814;SDS011;11069;48.988;8.450;2022-11-09T02:30:04;14.65;;;10.95;;
21814;SDS011;11069;48.988;8.450;2022-11-09T02:32:30;15.07;;;12.85;;
21814;SDS011;11069;48.988;8.450;2022-11-09T02:34:56;18.50;;;13.25;;
21814;SDS011;11069;48.988;8.450;2022-11-09T02:37:29;17.48;;;14.50;;
21814;SDS011;11069;48.988;8.450;2022-11-09T02:40:00;17.75;;;14.50;;
21814;SDS011;11069;48.988;8.450;2022-11-09T02:42:28;16.75;;;14.00;;
21814;SDS011;11069;48.988;8.450;2022-11-09T02:44:55;14.82;;;12.90;;
21814;SDS011;11069;48.988;8.450;2022-11-09T02:47:23;19.55;;;14.32;;
21814;SDS011;11069;48.988;8.450;2022-11-09T02:49:48;17.65;;;15.23;;
21814;SDS011;11069;48.988;8.450;2022-11-09T02:52:14;17.27;;;12.88;;
21814;SDS011;11069;48.988;8.450;2022-11-09T02:54:41;21.92;;;16.70;;
21814;SDS011;11069;48.988;8.450;2022-11-09T02:57:06;22.67;;;16.83;;
21814;SDS011;11069;48.988;8.450;2022-11-09T02:59:32;17.38;;;15.35;;
21814;SDS011;11069;48.988;8.450;2022-11-09T03:01:58;16.20;;;11.85;;
21814;SDS011;11069;48.988;8.450;2022-11-09T03:04:23;14.05;;;11.73;;
21814;SDS011;11069;48.988;8.450;2022-11-09T03:06:49;16.33;;;13.88;;
21814;SDS011;11069;48.988;8.450;2022-11-09T03:09:14;18.52;;;13.68;;
21814;SDS011;11069;48.988;8.450;2022-11-09T03:11:40;15.95;;;14.30;;
21814;SDS011;11069;48.988;8.450;2022-11-09T03:14:07;21.05;;;14.73;;
21814;SDS011;11069;48.988;8.450;2022-11-09T03:16:34;15.90;;;12.27;;
21814;SDS011;11069;48.988;8.450;2022-11-09T03:19:03;13.75;;;12.35;;
21814;SDS011;11069;48.988;8.450;2022-11-09T03:21:29;14.52;;;12.38;;
21814;SDS011;11069;48.988;8.450;2022-11-09T03:23:55;16.40;;;14.57;;
21814;SDS011;11069;48.988;8.450;2022-11-09T03:26:20;19.17;;;16.38;;
21814;SDS011;11069;48.988;8.450;2022-11-09T03:28:46;16.58;;;14.88;;
21814;SDS011;11069;48.988;8.450;2022-11-09T03:31:11;18.95;;;15.18;;
21814;SDS011;11069;48.988;8.450;2022-11-09T03:33:38;15.10;;;13.45;;
21814;SDS011;11069;48.988;8.450;2022-11-09T03:36:03;17.02;;;15.23;;
21814;SDS011;11069;48.988;8.450;2022-11-09T03:38:30;16.80;;;14.35;;
21814;SDS011;11069;48.988;8.450;2022-11-09T03:40:57;16.20;;;13.63;;
21814;SDS011;11069;48.988;8.450;2022-11-09T03:43:24;13.77;;;12.27;;
21814;SDS011;11069;48.988;8.450;2022-11-09T03:45:50;18.05;;;11.25;;
21814;SDS011;11069;48.988;8.450;2022-11-09T03:48:15;13.38;;;11.75;;
21814;SDS011;11069;48.988;8.450;2022-11-09T03:50:41;17.52;;;12.02;;
21814;SDS011;11069;48.988;8.450;2022-11-09T03:53:07;14.63;;;12.73;;
21814;SDS011;11069;48.988;8.450;2022-11-09T03:55:36;14.63;;;11.48;;
21814;SDS011;11069;48.988;8.450;2022-11-09T03:58:03;12.80;;;10.80;;
21814;SDS011;11069;48.988;8.450;2022-11-09T04:00:31;11.52;;;10.32;;
21814;SDS011;11069;48.988;8.450;2022-11-09T04:02:57;13.32;;;10.77;;
21814;SDS011;11069;48.988;8.450;2022-11-09T04:05:23;13.80;;;12.13;;
21814;SDS011;11069;48.988;8.450;2022-11-09T04:07:51;13.57;;;12.02;;
21814;SDS011;11069;48.988;8.450;2022-11-09T04:10:18;15.63;;;13.80;;
21814;SDS011;11069;48.988;8.450;2022-11-09T04:12:45;12.00;;;10.73;;
21814;SDS011;11069;48.988;8.450;2022-11-09T04:15:11;12.68;;;10.15;;
21814;SDS011;11069;48.988;8.450;2022-11-09T04:17:36;13.30;;;11.85;;
21814;SDS011;11069;48.988;8.450;2022-11-09T04:20:03;11.60;;;10.43;;
21814;SDS011;11069;48.988;8.450;2022-11-09T04:22:32;15.25;;;11.30;;
21814;SDS011;11069;48.988;8.450;2022-11-09T04:24:59;14.65;;;11.07;;
21814;SDS011;11069;48.988;8.450;2022-11-09T04:27:24;11.13;;;8.43;;
21814;SDS011;11069;48.988;8.450;2022-11-09T04:29:50;12.07;;;8.32;;
21814;SDS011;11069;48.988;8.450;2022-11-09T04:32:15;9.75;;;6.88;;
21814;SDS011;11069;48.988;8.450;2022-11-09T04:34:41;8.52;;;6.85;;
21814;SDS011;11069;48.988;8.450;2022-11-09T04:37:07;8.93;;;6.80;;
21814;SDS011;11069;48.988;8.450;2022-11-09T04:39:33;10.75;;;7.68;;
21814;SDS011;11069;48.988;8.450;2022-11-09T04:41:59;7.05;;;5.55;;
21814;SDS011;11069;48.988;8.450;2022-11-09T04:44:25;10.57;;;6.05;;
21814;SDS011;11069;48.988;8.450;2022-11-09T04:46:50;8.38;;;5.80;;
21814;SDS011;11069;48.988;8.450;2022-11-09T04:49:16;9.32;;;5.60;;
21814;SDS011;11069;48.988;8.450;2022-11-09T04:51:41;7.70;;;5.40;;
21814;SDS011;11069;48.988;8.450;2022-11-09T04:54:07;9.30;;;6.03;;
21814;SDS011;11069;48.988;8.450;2022-11-09T04:56:32;7.32;;;6.18;;
21814;SDS011;11069;48.988;8.450;2022-11-09T04:58:58;7.60;;;4.80;;
21814;SDS011;11069;48.988;8.450;2022-11-09T05:01:24;8.18;;;5.38;;
21814;SDS011;11069;48.988;8.450;2022-11-09T05:03:49;7.07;;;4.50;;
21814;SDS011;11069;48.988;8.450;2022-11-09T05:06:15;5.97;;;4.70;;
21814;SDS011;11069;48.988;8.450;2022-11-09T05:08:56;4.80;;;3.90;;
21814;SDS011;11069;48.988;8.450;2022-11-09T05:11:23;7.28;;;4.72;;
21814;SDS011;11069;48.988;8.450;2022-11-09T05:13:48;5.82;;;4.93;;
21814;SDS011;11069;48.988;8.450;2022-11-09T05:16:17;8.40;;;6.45;;
21814;SDS011;11069;48.988;8.450;2022-11-09T05:18:43;6.65;;;5.03;;
21814;SDS011;11069;48.988;8.450;2022-11-09T05:21:09;5.85;;;4.38;;
21814;SDS011;11069;48.988;8.450;2022-11-09T05:23:35;6.30;;;4.88;;
21814;SDS011;11069;48.988;8.450;2022-11-09T05:26:19;6.35;;;4.18;;
21814;SDS011;11069;48.988;8.450;2022-11-09T05:28:45;4.75;;;3.67;;
21814;SDS011;11069;48.988;8.450;2022-11-09T05:31:10;4.60;;;4.15;;
21814;SDS011;11069;48.988;8.450;2022-11-09T05:33:36;10.93;;;4.30;;
21814;SDS011;11069;48.988;8.450;2022-11-09T05:36:02;5.70;;;4.32;;
21814;SDS011;11069;48.988;8.450;2022-11-09T05:38:27;7.30;;;5.30;;
21814;SDS011;11069;48.988;8.450;2022-11-09T05:40:53;10.27;;;5.47;;
21814;SDS011;11069;48.988;8.450;2022-11-09T05:43:19;10.00;;;4.90;;
21814;SDS011;11069;48.988;8.450;2022-11-09T05:45:45;13.35;;;6.05;;
21814;SDS011;11069;48.988;8.450;2022-11-09T05:48:12;11.23;;;5.13;;
21814;SDS011;11069;48.988;8.450;2022-11-09T05:50:39;11.07;;;5.80;;
21814;SDS011;11069;48.988;8.450;2022-11-09T05:53:05;4.80;;;2.85;;
21814;SDS011;11069;48.988;8.450;2022-11-09T05:55:31;6.63;;;3.97;;
21814;SDS011;11069;48.988;8.450;2022-11-09T05:57:57;9.30;;;5.05;;
21814;SDS011;11069;48.988;8.450;2022-11-09T06:00:23;5.78;;;3.75;;
21814;SDS011;11069;48.988;8.450;2022-11-09T06:02:49;12.35;;;4.88;;
21814;SDS011;11069;48.988;8.450;2022-11-09T06:05:15;8.32;;;4.32;;
21814;SDS011;11069;48.988;8.450;2022-11-09T06:07:41;5.45;;;4.07;;
21814;SDS011;11069;48.988;8.450;2022-11-09T06:10:07;8.82;;;4.60;;
21814;SDS011;11069;48.988;8.450;2022-11-09T06:12:36;10.00;;;4.40;;
21814;SDS011;11069;48.988;8.450;2022-11-09T06:15:02;6.28;;;3.67;;
21814;SDS011;11069;48.988;8.450;2022-11-09T06:17:28;4.93;;;3.45;;
21814;SDS011;11069;48.988;8.450;2022-11-09T06:19:53;5.85;;;3.70;;
21814;SDS011;11069;48.988;8.450;2022-11-09T06:25:21;3.95;;;3.58;;
21814;SDS011;11069;48.988;8.450;2022-11-09T06:27:47;5.65;;;3.47;;
21814;SDS011;11069;48.988;8.450;2022-11-09T06:30:13;6.32;;;4.43;;
21814;SDS011;11069;48.988;8.450;2022-11-09T06:32:39;6.00;;;4.15;;
21814;SDS011;11069;48.988;8.450;2022-11-09T06:35:05;5.13;;;2.70;;
21814;SDS011;11069;48.988;8.450;2022-11-09T06:37:31;4.95;;;2.30;;
21814;SDS011;11069;48.988;8.450;2022-11-09T06:39:57;6.40;;;1.80;;
21814;SDS011;11069;48.988;8.450;2022-11-09T06:42:22;3.50;;;1.80;;
21814;SDS011;11069;48.988;8.450;2022-11-09T06:44:48;3.35;;;2.00;;
21814;SDS011;11069;48.988;8.450;2022-11-09T06:47:14;3.53;;;1.90;;
21814;SDS011;11069;48.988;8.450;2022-11-09T06:49:40;2.17;;;1.55;;
21814;SDS011;11069;48.988;8.450;2022-11-09T06:52:05;2.65;;;2.10;;
21814;SDS011;11069;48.988;8.450;2022-11-09T06:54:31;3.95;;;1.60;;
21814;SDS011;11069;48.988;8.450;2022-11-09T06:56:57;1.48;;;1.20;;
21814;SDS011;11069;48.988;8.450;2022-11-09T06:59:23;2.05;;;1.50;;
21814;SDS011;11069;48.988;8.450;2022-11-09T07:01:48;2.75;;;1.40;;
21814;SDS011;11069;48.988;8.450;2022-11-09T07:04:14;9.93;;;8.98;;
21814;SDS011;11069;48.988;8.450;2022-11-09T07:06:40;1.70;;;1.60;;
21814;SDS011;11069;48.988;8.450;2022-11-09T07:09:07;7.03;;;4.57;;
21814;SDS011;11069;48.988;8.450;2022-11-09T07:11:33;4.80;;;2.80;;
21814;SDS011;11069;48.988;8.450;2022-11-09T07:13:58;2.67;;;1.15;;
21814;SDS011;11069;48.988;8.450;2022-11-09T07:16:25;1.70;;;1.20;;
21814;SDS011;11069;48.988;8.450;2022-11-09T07:18:50;1.88;;;1.20;;
21814;SDS011;11069;48.988;8.450;2022-11-09T07:21:16;3.22;;;1.30;;
21814;SDS011;11069;48.988;8.450;2022-11-09T07:23:42;3.15;;;1.70;;
21814;SDS011;11069;48.988;8.450;2022-11-09T07:26:08;3.53;;;2.75;;
21814;SDS011;11069;48.988;8.450;2022-11-09T07:28:34;3.55;;;1.70;;
21814;SDS011;11069;48.988;8.450;2022-11-09T07:30:59;7.28;;;6.15;;
21814;SDS011;11069;48.988;8.450;2022-11-09T07:33:25;4.57;;;2.72;;
21814;SDS011;11069;48.988;8.450;2022-11-09T07:35:54;3.00;;;1.95;;
21814;SDS011;11069;48.988;8.450;2022-11-09T07:38:21;3.35;;;2.10;;
21814;SDS011;11069;48.988;8.450;2022-11-09T07:40:47;4.45;;;2.30;;
21814;SDS011;11069;48.988;8.450;2022-11-09T07:43:12;4.07;;;2.30;;
21814;SDS011;11069;48.988;8.450;2022-11-09T07:45:38;3.63;;;2.42;;
21814;SDS011;11069;48.988;8.450;2022-11-09T07:48:05;4.40;;;3.20;;
21814;SDS011;11069;48.988;8.450;2022-11-09T07:50:33;2.80;;;2.30;;
21814;SDS011;11069;48.988;8.450;2022-11-09T07:52:59;3.25;;;2.65;;
21814;SDS011;11069;48.988;8.450;2022-11-09T07:55:27;2.40;;;2.20;;
21814;SDS011;11069;48.988;8.450;2022-11-09T07:57:54;6.50;;;2.33;;
21814;SDS011;11069;48.988;8.450;2022-11-09T08:00:20;1.80;;;1.70;;
21814;SDS011;11069;48.988;8.450;2022-11-09T08:02:49;6.10;;;2.50;;
21814;SDS011;11069;48.988;8.450;2022-11-09T08:05:15;3.35;;;2.72;;
21814;SDS011;11069;48.988;8.450;2022-11-09T08:07:40;3.92;;;2.30;;
21814;SDS011;11069;48.988;8.450;2022-11-09T08:10:06;4.57;;;2.63;;
21814;SDS011;11069;48.988;8.450;2022-11-09T08:12:32;2.47;;;2.22;;
21814;SDS011;11069;48.988;8.450;2022-11-09T08:14:57;2.58;;;2.10;;
21814;SDS011;11069;48.988;8.450;2022-11-09T08:17:23;4.03;;;2.38;;
21814;SDS011;11069;48.988;8.450;2022-11-09T08:19:49;4.20;;;2.00;;
21814;SDS011;11069;48.988;8.450;2022-11-09T08:22:14;6.22;;;2.10;;
21814;SDS011;11069;48.988;8.450;2022-11-09T08:24:40;6.75;;;2.58;;
21814;SDS011;11069;48.988;8.450;2022-11-09T08:27:05;4.35;;;2.28;;
21814;SDS011;11069;48.988;8.450;2022-11-09T08:29:31;7.78;;;2.80;;
21814;SDS011;11069;48.988;8.450;2022-11-09T08:31:57;3.33;;;2.30;;
21814;SDS011;11069;48.988;8.450;2022-11-09T08:34:22;4.45;;;1.90;;
21814;SDS011;11069;48.988;8.450;2022-11-09T08:36:48;4.25;;;2.28;;
21814;SDS011;11069;48.988;8.450;2022-11-09T08:39:14;5.60;;;2.47;;
21814;SDS011;11069;48.988;8.450;2022-11-09T08:41:41;7.30;;;2.28;;
21814;SDS011;11069;48.988;8.450;2022-11-09T08:44:10;2.70;;;1.95;;
21814;SDS011;11069;48.988;8.450;2022-11-09T08:46:35;11.68;;;9.00;;
21814;SDS011;11069;48.988;8.450;2022-11-09T08:49:01;7.70;;;4.93;;
21814;SDS011;11069;48.988;8.450;2022-11-09T08:51:26;4.95;;;2.15;;
21814;SDS011;11069;48.988;8.450;2022-11-09T08:53:52;2.97;;;2.40;;
21814;SDS011;11069;48.988;8.450;2022-11-09T08:56:18;2.55;;;2.08;;
21814;SDS011;11069;48.988;8.450;2022-11-09T08:58:45;4.18;;;2.42;;
21814;SDS011;11069;48.988;8.450;2022-11-09T09:01:11;3.55;;;2.40;;
21814;SDS011;11069;48.988;8.450;2022-11-09T09:03:37;6.40;;;2.22;;
21814;SDS011;11069;48.988;8.450;2022-11-09T09:06:03;5.43;;;1.90;;
21814;SDS011;11069;48.988;8.450;2022-11-09T09:08:29;4.60;;;2.38;;
21814;SDS011;11069;48.988;8.450;2022-11-09T09:11:04;3.47;;;2.20;;
21814;SDS011;11069;48.988;8.450;2022-11-09T09:13:30;6.20;;;2.45;;
21814;SDS011;11069;48.988;8.450;2022-11-09T09:15:56;7.95;;;2.97;;
21814;SDS011;11069;48.988;8.450;2022-11-09T09:18:22;4.65;;;2.75;;
21814;SDS011;11069;48.988;8.450;2022-11-09T09:20:48;5.03;;;3.10;;
21814;SDS011;11069;48.988;8.450;2022-11-09T09:23:14;3.97;;;3.55;;
21814;SDS011;11069;48.988;8.450;2022-11-09T09:25:41;6.15;;;3.15;;
21814;SDS011;11069;48.988;8.450;2022-11-09T09:28:16;4.05;;;2.92;;
21814;SDS011;11069;48.988;8.450;2022-11-09T09:30:42;3.20;;;2.90;;
21814;SDS011;11069;48.988;8.450;2022-11-09T09:33:08;3.58;;;2.60;;
21814;SDS011;11069;48.988;8.450;2022-11-09T09:35:34;4.63;;;2.20;;
21814;SDS011;11069;48.988;8.450;2022-11-09T09:37:59;3.75;;;2.40;;
21814;SDS011;11069;48.988;8.450;2022-11-09T09:40:28;3.90;;;2.08;;
21814;SDS011;11069;48.988;8.450;2022-11-09T09:43:04;3.97;;;2.22;;
21814;SDS011;11069;48.988;8.450;2022-11-09T09:45:31;2.88;;;2.25;;
21814;SDS011;11069;48.988;8.450;2022-11-09T09:48:02;4.88;;;3.70;;
21814;SDS011;11069;48.988;8.450;2022-11-09T09:51:37;4.32;;;2.13;;
21814;SDS011;11069;48.988;8.450;2022-11-09T09:53:35;3.83;;;1.75;;
21814;SDS011;11069;48.988;8.450;2022-11-09T09:56:23;1.52;;;1.38;;
21814;SDS011;11069;48.988;8.450;2022-11-09T09:58:54;2.05;;;1.75;;
21814;SDS011;11069;48.988;8.450;2022-11-09T10:01:27;7.15;;;1.77;;
21814;SDS011;11069;48.988;8.450;2022-11-09T10:04:02;3.22;;;1.90;;
21814;SDS011;11069;48.988;8.450;2022-11-09T10:09:26;5.30;;;2.42;;
21814;SDS011;11069;48.988;8.450;2022-11-09T10:14:44;2.78;;;2.03;;
21814;SDS011;11069;48.988;8.450;2022-11-09T10:20:02;5.53;;;2.47;;
21814;SDS011;11069;48.988;8.450;2022-11-09T10:25:31;3.92;;;1.88;;
21814;SDS011;11069;48.988;8.450;2022-11-09T10:28:01;2.60;;;1.63;;
21814;SDS011;11069;48.988;8.450;2022-11-09T10:30:31;2.65;;;1.60;;
21814;SDS011;11069;48.988;8.450;2022-11-09T10:38:29;3.95;;;1.70;;
21814;SDS011;11069;48.988;8.450;2022-11-09T10:41:01;3.30;;;1.50;;
21814;SDS011;11069;48.988;8.450;2022-11-09T10:43:35;3.00;;;1.65;;
21814;SDS011;11069;48.988;8.450;2022-11-09T10:46:01;3.97;;;1.40;;
21814;SDS011;11069;48.988;8.450;2022-11-09T10:48:31;2.78;;;1.15;;
21814;SDS011;11069;48.988;8.450;2022-11-09T10:50:59;2.80;;;1.58;;
21814;SDS011;11069;48.988;8.450;2022-11-09T10:53:26;2.88;;;1.50;;
21814;SDS011;11069;48.988;8.450;2022-11-09T11:00:53;2.13;;;1.35;;
21814;SDS011;11069;48.988;8.450;2022-11-09T11:03:26;2.30;;;1.40;;
21814;SDS011;11069;48.988;8.450;2022-11-09T11:06:03;2.70;;;1.55;;
21814;SDS011;11069;48.988;8.450;2022-11-09T11:08:39;5.97;;;1.67;;
21814;SDS011;11069;48.988;8.450;2022-11-09T11:13:38;2.42;;;1.30;;
21814;SDS011;11069;48.988;8.450;2022-11-09T11:18:48;2.67;;;1.60;;
21814;SDS011;11069;48.988;8.450;2022-11-09T11:21:15;2.88;;;1.50;;
21814;SDS011;11069;48.988;8.450;2022-11-09T11:23:42;2.88;;;1.65;;
21814;SDS011;11069;48.988;8.450;2022-11-09T11:26:18;3.08;;;1.50;;
21814;SDS011;11069;48.988;8.450;2022-11-09T11:28:49;3.40;;;1.60;;
21814;SDS011;11069;48.988;8.450;2022-11-09T11:31:20;2.55;;;1.60;;
21814;SDS011;11069;48.988;8.450;2022-11-09T11:33:46;4.95;;;1.75;;
21814;SDS011;11069;48.988;8.450;2022-11-09T11:39:01;3.03;;;1.63;;
21814;SDS011;11069;48.988;8.450;2022-11-09T11:46:57;3.47;;;1.50;;
21814;SDS011;11069;48.988;8.450;2022-11-09T11:52:16;4.40;;;1.80;;
21814;SDS011;11069;48.988;8.450;2022-11-09T11:57:57;3.83;;;1.80;;
21814;SDS011;11069;48.988;8.450;2022-11-09T12:00:56;3.13;;;1.83;;
21814;SDS011;11069;48.988;8.450;2022-11-09T12:03:51;4.13;;;1.73;;
21814;SDS011;11069;48.988;8.450;2022-11-09T12:06:26;2.88;;;1.75;;
21814;SDS011;11069;48.988;8.450;2022-11-09T12:14:33;2.90;;;1.80;;
21814;SDS011;11069;48.988;8.450;2022-11-09T12:19:47;3.50;;;1.77;;
21814;SDS011;11069;48.988;8.450;2022-11-09T12:25:13;2.75;;;1.90;;
21814;SDS011;11069;48.988;8.450;2022-11-09T12:33:47;3.60;;;2.10;;
21814;SDS011;11069;48.988;8.450;2022-11-09T12:36:23;3.28;;;1.90;;
21814;SDS011;11069;48.988;8.450;2022-11-09T12:39:21;4.72;;;2.17;;
21814;SDS011;11069;48.988;8.450;2022-11-09T12:41:52;3.75;;;1.58;;
21814;SDS011;11069;48.988;8.450;2022-11-09T12:44:28;2.90;;;1.70;;
21814;SDS011;11069;48.988;8.450;2022-11-09T12:47:00;5.00;;;2.13;;
21814;SDS011;11069;48.988;8.450;2022-11-09T12:51:58;2.97;;;2.13;;
21814;SDS011;11069;48.988;8.450;2022-11-09T12:54:24;5.05;;;2.42;;
21814;SDS011;11069;48.988;8.450;2022-11-09T12:56:53;4.00;;;1.90;;
21814;SDS011;11069;48.988;8.450;2022-11-09T13:01:52;2.95;;;2.15;;
21814;SDS011;11069;48.988;8.450;2022-11-09T13:04:21;4.73;;;2.10;;
21814;SDS011;11069;48.988;8.450;2022-11-09T13:09:31;4.28;;;2.50;;
21814;SDS011;11069;48.988;8.450;2022-11-09T13:11:58;3.03;;;2.30;;
21814;SDS011;11069;48.988;8.450;2022-11-09T13:14:39;5.63;;;2.20;;
21814;SDS011;11069;48.988;8.450;2022-11-09T13:19:50;4.63;;;2.67;;
21814;SDS011;11069;48.988;8.450;2022-11-09T13:38:20;2.90;;;2.42;;
21814;SDS011;11069;48.988;8.450;2022-11-09T13:59:15;3.58;;;2.53;;
21814;SDS011;11069;48.988;8.450;2022-11-09T14:01:56;4.45;;;2.95;;
21814;SDS011;11069;48.988;8.450;2022-11-09T14:09:56;4.68;;;2.45;;
21814;SDS011;11069;48.988;8.450;2022-11-09T14:15:24;6.05;;;3.20;;
21814;SDS011;11069;48.988;8.450;2022-11-09T14:27:02;6.43;;;3.03;;
21814;SDS011;11069;48.988;8.450;2022-11-09T14:29:28;6.18;;;2.83;;
21814;SDS011;11069;48.988;8.450;2022-11-09T14:31:58;6.68;;;3.58;;
21814;SDS011;11069;48.988;8.450;2022-11-09T14:34:42;4.53;;;3.33;;
21814;SDS011;11069;48.988;8.450;2022-11-09T14:37:09;4.40;;;3.28;;
21814;SDS011;11069;48.988;8.450;2022-11-09T14:39:36;6.30;;;3.50;;
21814;SDS011;11069;48.988;8.450;2022-11-09T14:42:02;4.80;;;3.22;;
21814;SDS011;11069;48.988;8.450;2022-11-09T14:44:31;5.40;;;3.25;;
21814;SDS011;11069;48.988;8.450;2022-11-09T14:47:04;4.20;;;3.38;;
21814;SDS011;11069;48.988;8.450;2022-11-09T14:49:38;5.53;;;3.50;;
21814;SDS011;11069;48.988;8.450;2022-11-09T14:52:04;4.03;;;3.13;;
21814;SDS011;11069;48.988;8.450;2022-11-09T14:54:29;5.00;;;3.10;;
21814;SDS011;11069;48.988;8.450;2022-11-09T14:56:55;7.78;;;3.40;;
21814;SDS011;11069;48.988;8.450;2022-11-09T14:59:25;6.03;;;3.42;;
21814;SDS011;11069;48.988;8.450;2022-11-09T15:01:58;6.57;;;3.40;;
21814;SDS011;11069;48.988;8.450;2022-11-09T15:04:24;5.07;;;3.33;;
21814;SDS011;11069;48.988;8.450;2022-11-09T15:06:58;4.82;;;3.58;;
21814;SDS011;11069;48.988;8.450;2022-11-09T15:09:43;5.15;;;3.42;;
21814;SDS011;11069;48.988;8.450;2022-11-09T15:12:16;5.72;;;3.80;;
21814;SDS011;11069;48.988;8.450;2022-11-09T15:14:50;7.75;;;4.18;;
21814;SDS011;11069;48.988;8.450;2022-11-09T15:17:25;5.15;;;3.40;;
21814;SDS011;11069;48.988;8.450;2022-11-09T15:25:01;5.00;;;3.30;;
21814;SDS011;11069;48.988;8.450;2022-11-09T15:27:42;4.47;;;3.15;;
21814;SDS011;11069;48.988;8.450;2022-11-09T15:30:24;4.15;;;3.30;;
21814;SDS011;11069;48.988;8.450;2022-11-09T15:32:55;6.13;;;3.15;;
21814;SDS011;11069;48.988;8.450;2022-11-09T15:35:21;7.68;;;3.08;;
21814;SDS011;11069;48.988;8.450;2022-11-09T15:37:48;3.60;;;2.83;;
21814;SDS011;11069;48.988;8.450;2022-11-09T15:40:16;7.82;;;2.85;;
21814;SDS011;11069;48.988;8.450;2022-11-09T15:42:47;6.13;;;3.25;;
21814;SDS011;11069;48.988;8.450;2022-11-09T15:45:14;6.60;;;3.30;;
21814;SDS011;11069;48.988;8.450;2022-11-09T15:47:47;6.28;;;3.60;;
21814;SDS011;11069;48.988;8.450;2022-11-09T15:50:21;3.95;;;2.85;;
21814;SDS011;11069;48.988;8.450;2022-11-09T15:52:49;8.48;;;3.25;;
21814;SDS011;11069;48.988;8.450;2022-11-09T15:55:17;3.03;;;2.53;;
21814;SDS011;11069;48.988;8.450;2022-11-09T15:57:46;3.60;;;2.40;;
21814;SDS011;11069;48.988;8.450;2022-11-09T16:00:17;3.40;;;2.42;;
21814;SDS011;11069;48.988;8.450;2022-11-09T16:02:44;5.05;;;2.72;;
21814;SDS011;11069;48.988;8.450;2022-11-09T16:05:12;4.40;;;2.63;;
21814;SDS011;11069;48.988;8.450;2022-11-09T16:07:47;6.95;;;2.95;;
21814;SDS011;11069;48.988;8.450;2022-11-09T16:10:17;5.53;;;3.00;;
21814;SDS011;11069;48.988;8.450;2022-11-09T16:12:44;6.63;;;2.80;;
21814;SDS011;11069;48.988;8.450;2022-11-09T16:15:11;6.70;;;3.00;;
21814;SDS011;11069;48.988;8.450;2022-11-09T16:17:37;5.93;;;3.10;;
21814;SDS011;11069;48.988;8.450;2022-11-09T16:20:03;6.07;;;3.50;;
21814;SDS011;11069;48.988;8.450;2022-11-09T16:22:29;5.03;;;3.20;;
21814;SDS011;11069;48.988;8.450;2022-11-09T16:24:57;6.88;;;3.70;;
21814;SDS011;11069;48.988;8.450;2022-11-09T16:27:23;3.47;;;3.13;;
21814;SDS011;11069;48.988;8.450;2022-11-09T16:29:49;5.85;;;3.25;;
21814;SDS011;11069;48.988;8.450;2022-11-09T16:32:15;5.55;;;3.08;;
21814;SDS011;11069;48.988;8.450;2022-11-09T16:34:40;5.95;;;3.53;;
21814;SDS011;11069;48.988;8.450;2022-11-09T16:37:06;5.35;;;3.60;;
21814;SDS011;11069;48.988;8.450;2022-11-09T16:39:32;4.90;;;3.45;;
21814;SDS011;11069;48.988;8.450;2022-11-09T16:42:00;4.57;;;3.70;;
21814;SDS011;11069;48.988;8.450;2022-11-09T16:44:32;6.68;;;4.55;;
21814;SDS011;11069;48.988;8.450;2022-11-09T16:47:00;6.40;;;4.43;;
21814;SDS011;11069;48.988;8.450;2022-11-09T16:49:28;7.07;;;4.82;;
21814;SDS011;11069;48.988;8.450;2022-11-09T16:51:55;7.03;;;5.10;;
21814;SDS011;11069;48.988;8.450;2022-11-09T16:54:21;8.90;;;6.50;;
21814;SDS011;11069;48.988;8.450;2022-11-09T16:56:46;6.50;;;5.80;;
21814;SDS011;11069;48.988;8.450;2022-11-09T16:59:12;6.03;;;4.72;;